TimeEDT,TemperatureF,Dew PointF,Humidity,Sea Level PressureIn,VisibilityMPH,Wind Direction,Wind SpeedMPH,Gust SpeedMPH,PrecipitationIn,Events,Conditions,WindDirDegrees,DateUTC
12:20 AM,50.0,48.2,94,29.65,10.0,Calm,Calm,-,N/A,,Overcast,0,2012-10-01 04:20:00
12:51 AM,50.0,48.0,93,29.66,10.0,South,3.5,-,0.00,,Overcast,190,2012-10-01 04:51:00
1:51 AM,50.0,46.9,89,29.65,10.0,SSW,3.5,-,0.01,Rain,Light Rain,210,2012-10-01 05:51:00
2:51 AM,50.0,46.9,89,29.64,10.0,SSW,6.9,-,0.01,Rain,Light Rain,200,2012-10-01 06:51:00
3:51 AM,50.0,46.0,86,29.62,10.0,SW,6.9,-,0.01,Rain,Light Rain,220,2012-10-01 07:51:00
4:51 AM,50.0,46.0,86,29.62,10.0,SSW,6.9,-,0.01,Rain,Light Rain,210,2012-10-01 08:51:00
5:51 AM,50.0,46.0,86,29.61,10.0,SSW,10.4,-,0.00,Rain,Light Rain,210,2012-10-01 09:51:00
6:51 AM,50.0,46.0,86,29.61,10.0,SSW,9.2,-,0.00,,Overcast,210,2012-10-01 10:51:00
7:51 AM,51.1,46.9,86,29.62,10.0,SW,8.1,-,N/A,,Overcast,230,2012-10-01 11:51:00
8:51 AM,52.0,48.0,86,29.64,9.0,SW,10.4,17.3,0.00,,Overcast,220,2012-10-01 12:51:00
9:51 AM,52.0,48.9,89,29.67,10.0,SW,8.1,-,0.00,,Overcast,220,2012-10-01 13:51:00
10:51 AM,54.0,50.0,86,29.69,10.0,West,6.9,23.0,N/A,,Overcast,270,2012-10-01 14:51:00
11:51 AM,54.0,50.0,86,29.72,10.0,WNW,6.9,-,0.01,,Overcast,290,2012-10-01 15:51:00
12:51 PM,55.9,51.1,84,29.74,10.0,West,8.1,18.4,N/A,,Overcast,280,2012-10-01 16:51:00
1:51 PM,57.0,50.0,77,29.75,10.0,WNW,12.7,23.0,N/A,,Overcast,300,2012-10-01 17:51:00
2:51 PM,57.0,50.0,77,29.78,10.0,WNW,9.2,18.4,N/A,,Overcast,290,2012-10-01 18:51:00
3:04 PM,57.2,50.0,77,29.78,10.0,WNW,11.5,19.6,N/A,,Overcast,300,2012-10-01 19:04:00
3:51 PM,55.9,50.0,80,29.81,10.0,West,11.5,21.9,N/A,,Overcast,280,2012-10-01 19:51:00
4:06 PM,55.4,50.0,82,29.81,10.0,WNW,10.4,19.6,N/A,,Overcast,290,2012-10-01 20:06:00
4:51 PM,55.0,50.0,83,29.84,10.0,West,5.8,-,N/A,,Overcast,270,2012-10-01 20:51:00
5:51 PM,55.4,51.8,88,29.85,10.0,Calm,Calm,-,N/A,,Overcast,0,2012-10-01 21:51:00
6:51 PM,55.9,51.1,84,29.89,10.0,Calm,Calm,-,N/A,,Overcast,0,2012-10-01 22:51:00
7:51 PM,55.0,52.0,89,29.91,10.0,Calm,Calm,-,N/A,,Overcast,0,2012-10-01 23:51:00
8:20 PM,53.6,51.8,94,29.90,10.0,Calm,Calm,-,N/A,,Overcast,0,2012-10-02 00:20:00
8:51 PM,54.0,52.0,93,29.92,10.0,Calm,Calm,-,N/A,,Overcast,0,2012-10-02 00:51:00
9:51 PM,53.1,52.0,96,29.94,10.0,Calm,Calm,-,N/A,,Overcast,0,2012-10-02 01:51:00
10:51 PM,52.0,52.0,100,29.95,10.0,Calm,Calm,-,N/A,,Mostly Cloudy,0,2012-10-02 02:51:00
11:51 PM,50.0,48.9,96,29.96,10.0,Calm,Calm,-,N/A,,Mostly Cloudy,0,2012-10-02 03:51:00